Time;durP1;ratioP1;P1;durP2;ratioP2;P2;SDS_P1;SDS_P2;PMS_P1;PMS_P2;Temp;Humidity;BMP_temperature;BMP_pressure;BME280_temperature;BME280_humidity;BME280_pressure;Samples;Min_cycle;Max_cycle;Signal;HPM_P1;HPM_P2
2022/07/06 18:12:23;;;;;;;;;;;26.30;75.10;;;;;;5053917;27;20396;-87
2022/07/06 18:14:49;;;;;;;;;;;26.30;76.60;;;;;;5065689;28;19921;-85
2022/07/06 18:17:16;;;;;;;;;;;26.30;75.70;;;;;;5037801;28;20330;-86
2022/07/06 18:19:45;;;;;;;;;;;26.40;76.40;;;;;;5045152;28;19970;-88
2022/07/06 18:22:10;;;;;;;;;;;26.40;75.60;;;;;;5084928;28;19917;-88
2022/07/06 18:24:36;;;;;;;;;;;26.60;76.70;;;;;;5037372;28;19968;-87
2022/07/06 18:27:05;;;;;;;;;;;26.60;76.60;;;;;;5023788;28;19921;-85
2022/07/06 18:29:34;;;;;;;;;;;26.60;76.60;;;;;;5055074;28;19921;-94
2022/07/06 18:32:00;;;;;;;;;;;26.70;76.60;;;;;;5061065;28;20315;-93
2022/07/06 18:34:25;;;;;;;;;;;26.70;76.70;;;;;;5059456;28;19917;-95
2022/07/06 18:36:52;;;;;;;;;;;26.70;76.80;;;;;;5043647;28;20017;-93
2022/07/06 18:39:30;;;;;;;;;;;26.80;76.80;;;;;;5021812;28;19996;-88
2022/07/06 18:42:18;;;;;;;;;;;26.70;75.50;;;;;;5046362;28;20015;-89
2022/07/06 18:44:44;;;;;;;;;;;26.70;75.40;;;;;;5056656;28;19925;-87
2022/07/06 18:47:31;;;;;;;;;;;26.80;75.40;;;;;;5052968;28;19972;-85
2022/07/06 18:49:57;;;;;;;;;;;26.70;76.80;;;;;;5026298;28;20016;-85
2022/07/06 18:52:23;;;;;;;;;;;26.70;75.60;;;;;;5054257;28;19923;-87
2022/07/06 18:54:48;;;;;;;;;;;26.80;75.40;;;;;;5029373;28;19925;-87
2022/07/06 18:57:14;;;;;;;;;;;26.80;75.80;;;;;;5021279;28;20235;-83
2022/07/06 18:59:40;;;;;;;;;;;26.90;76.00;;;;;;5021776;28;20052;-83
2022/07/06 19:02:06;;;;;;;;;;;26.90;75.90;;;;;;5009194;28;20525;-81
2022/07/06 19:04:32;;;;;;;;;;;27.00;75.80;;;;;;5041841;28;20032;-82
2022/07/06 19:06:58;;;;;;;;;;;27.00;75.10;;;;;;5031473;28;19921;-83
2022/07/06 19:09:23;;;;;;;;;;;27.00;75.00;;;;;;5013613;28;19944;-84
2022/07/06 19:11:49;;;;;;;;;;;27.10;74.40;;;;;;5006431;28;19983;-83
2022/07/06 19:14:15;;;;;;;;;;;27.10;73.70;;;;;;5049467;28;19925;-81
2022/07/06 19:16:41;;;;;;;;;;;27.00;74.80;;;;;;5081988;28;19924;-79
2022/07/06 19:19:07;;;;;;;;;;;27.00;75.40;;;;;;5052742;28;20713;-81
2022/07/06 19:21:33;;;;;;;;;;;26.90;75.40;;;;;;5051015;28;19921;-80
2022/07/06 19:23:58;;;;;;;;;;;26.90;75.10;;;;;;5037122;28;19927;-81
2022/07/06 19:26:25;;;;;;;;;;;26.90;75.40;;;;;;5038250;28;20127;-77
2022/07/06 19:28:51;;;;;;;;;;;26.90;75.80;;;;;;5038787;28;19921;-82
2022/07/06 19:31:18;;;;;;;;;;;26.90;75.60;;;;;;5026516;28;19946;-82
2022/07/06 19:33:45;;;;;;;;;;;26.90;75.40;;;;;;5022539;28;19921;-80
2022/07/06 19:36:10;;;;;;;;;;;26.90;75.00;;;;;;5032318;28;19921;-82
2022/07/06 19:38:36;;;;;;;;;;;26.90;74.90;;;;;;5038604;28;19921;-84
2022/07/06 19:41:02;;;;;;;;;;;27.00;74.60;;;;;;5022124;28;19925;-83
2022/07/06 19:43:28;;;;;;;;;;;27.00;73.90;;;;;;5036430;28;19917;-82
2022/07/06 19:45:53;;;;;;;;;;;27.10;73.60;;;;;;5036620;28;19921;-84
2022/07/06 19:48:19;;;;;;;;;;;27.00;73.00;;;;;;5037270;28;19921;-83
2022/07/06 19:50:48;;;;;;;;;;;27.00;72.60;;;;;;5039234;28;19929;-81
2022/07/06 19:53:13;;;;;;;;;;;27.00;73.10;;;;;;5038795;28;19947;-86
2022/07/06 19:55:39;;;;;;;;;;;26.90;73.20;;;;;;5020974;28;19917;-84
2022/07/06 19:58:05;;;;;;;;;;;26.90;73.60;;;;;;5070696;28;20264;-82
2022/07/06 20:00:32;;;;;;;;;;;26.90;73.70;;;;;;5038192;28;19987;-82
2022/07/06 20:02:58;;;;;;;;;;;26.90;73.90;;;;;;5039238;28;19943;-82
2022/07/06 20:05:23;;;;;;;;;;;26.90;74.10;;;;;;5038233;28;19921;-84
2022/07/06 20:07:49;;;;;;;;;;;26.90;73.60;;;;;;5038750;28;19968;-86
2022/07/06 20:10:15;;;;;;;;;;;26.90;73.50;;;;;;5010400;28;19954;-80
2022/07/06 20:12:41;;;;;;;;;;;26.90;74.10;;;;;;5039028;28;19921;-80
2022/07/06 20:15:07;;;;;;;;;;;27.00;73.60;;;;;;5036030;28;19932;-82
2022/07/06 20:18:07;;;;;;;;;;;26.90;73.90;;;;;;5061405;28;19935;-81
2022/07/06 20:31:13;;;;;;;;;;;28.30;70.60;;;;;;5069452;27;19971;-86
2022/07/06 20:33:39;;;;;;;;;;;28.10;70.50;;;;;;4973504;28;19963;-82
2022/07/06 20:36:07;;;;;;;;;;;27.80;70.90;;;;;;4989617;28;19974;-81
2022/07/06 20:38:33;;;;;;;;;;;27.60;71.50;;;;;;4980791;28;19966;-80
2022/07/06 20:40:59;;;;;;;;;;;27.50;71.70;;;;;;4997257;28;20479;-81
2022/07/06 20:43:25;;;;;;;;;;;27.40;72.10;;;;;;4982021;28;19947;-80
2022/07/06 20:45:50;;;;;;;;;;;27.30;72.30;;;;;;4980529;28;21145;-81
2022/07/06 20:48:17;;;;;;;;;;;27.20;72.50;;;;;;4980745;28;19966;-82
2022/07/06 20:50:42;;;;;;;;;;;27.20;72.60;;;;;;4982103;28;20025;-82
2022/07/06 20:53:09;;;;;;;;;;;27.10;72.60;;;;;;4963622;28;19989;-81
2022/07/06 20:55:35;;;;;;;;;;;27.10;73.00;;;;;;4993799;28;20649;-81
2022/07/06 20:58:00;;;;;;;;;;;27.10;72.10;;;;;;5012234;28;20016;-81
2022/07/06 21:00:26;;;;;;;;;;;27.20;71.60;;;;;;4980593;28;20040;-81
2022/07/06 21:02:52;;;;;;;;;;;27.10;71.60;;;;;;4979912;28;19969;-80
2022/07/06 21:05:20;;;;;;;;;;;27.10;71.60;;;;;;4980340;28;19987;-80
2022/07/06 21:07:45;;;;;;;;;;;27.00;71.70;;;;;;5011683;28;19950;-80
2022/07/06 21:10:11;;;;;;;;;;;27.00;72.20;;;;;;4980720;28;20332;-80
2022/07/06 21:12:37;;;;;;;;;;;26.90;72.50;;;;;;4949618;28;19966;-81
2022/07/06 21:15:03;;;;;;;;;;;26.80;73.00;;;;;;4994544;28;20032;-81
2022/07/06 21:17:29;;;;;;;;;;;26.80;73.50;;;;;;4963614;28;19974;-79
2022/07/06 21:19:55;;;;;;;;;;;26.80;73.90;;;;;;4976979;28;19943;-79
2022/07/06 21:22:20;;;;;;;;;;;26.70;74.00;;;;;;4981524;28;19944;-81
2022/07/06 21:24:46;;;;;;;;;;;26.70;74.00;;;;;;4981585;28;19986;-79
2022/07/06 21:27:12;;;;;;;;;;;26.70;74.40;;;;;;4948029;28;19968;-80
2022/07/06 21:29:37;;;;;;;;;;;26.70;74.60;;;;;;4964049;28;20087;-80
2022/07/06 21:32:03;;;;;;;;;;;26.60;74.80;;;;;;4950028;28;20422;-83
2022/07/06 21:34:29;;;;;;;;;;;26.60;75.00;;;;;;4980929;28;19991;-83
2022/07/06 21:36:58;;;;;;;;;;;26.60;75.30;;;;;;4980342;28;19972;-82
2022/07/06 21:39:24;;;;;;;;;;;26.50;75.70;;;;;;4961608;28;19970;-82
2022/07/06 21:41:49;;;;;;;;;;;26.50;75.90;;;;;;4986297;28;19965;-81
2022/07/06 21:44:15;;;;;;;;;;;26.40;76.10;;;;;;4983056;28;20051;-81
2022/07/06 21:46:41;;;;;;;;;;;26.40;76.30;;;;;;4968801;28;19946;-81
2022/07/06 21:49:07;;;;;;;;;;;26.40;76.70;;;;;;4967599;28;19971;-81
2022/07/06 21:51:33;;;;;;;;;;;26.40;76.90;;;;;;4950931;28;19964;-81
2022/07/06 21:53:58;;;;;;;;;;;26.30;76.90;;;;;;4958366;28;19964;-81
2022/07/06 21:56:24;;;;;;;;;;;26.30;77.20;;;;;;4966894;28;19966;-80
2022/07/06 21:58:50;;;;;;;;;;;26.20;77.20;;;;;;4967839;28;19948;-80
2022/07/06 22:01:16;;;;;;;;;;;26.20;77.40;;;;;;4967619;28;20404;-81
2022/07/06 22:03:42;;;;;;;;;;;26.20;77.60;;;;;;4966772;28;19987;-80
2022/07/06 22:06:07;;;;;;;;;;;26.20;77.60;;;;;;4998647;28;20039;-80
2022/07/06 22:08:33;;;;;;;;;;;26.10;77.60;;;;;;4968476;28;19968;-81
2022/07/06 22:10:59;;;;;;;;;;;26.10;77.60;;;;;;4998867;28;19980;-80
2022/07/06 22:13:43;;;;;;;;;;;26.10;78.00;;;;;;5000125;28;19948;-81
2022/07/06 22:16:12;;;;;;;;;;;26.10;78.10;;;;;;4968997;28;20312;-82
2022/07/06 22:18:41;;;;;;;;;;;26.10;78.30;;;;;;5030180;28;20006;-82
2022/07/06 22:21:08;;;;;;;;;;;26.00;78.30;;;;;;4980270;28;19967;-83
2022/07/06 22:23:34;;;;;;;;;;;26.00;78.50;;;;;;4945176;28;19964;-82
2022/07/06 22:26:00;;;;;;;;;;;26.10;78.40;;;;;;4983716;28;19971;-81
2022/07/06 22:28:25;;;;;;;;;;;26.10;78.60;;;;;;4967991;28;20805;-82
2022/07/06 22:30:51;;;;;;;;;;;26.10;78.50;;;;;;4965795;28;19980;-82
2022/07/06 22:33:17;;;;;;;;;;;26.00;78.40;;;;;;4982125;28;20512;-82
2022/07/06 22:35:43;;;;;;;;;;;26.00;78.50;;;;;;4957970;28;19973;-82
2022/07/06 22:38:08;;;;;;;;;;;26.00;78.50;;;;;;4966337;28;19968;-81
2022/07/06 22:43:19;;;;;;;;;;;26.00;78.70;;;;;;4963425;28;20067;-80
2022/07/06 22:45:45;;;;;;;;;;;26.00;78.70;;;;;;4968861;28;20054;-81
2022/07/06 22:48:10;;;;;;;;;;;25.90;78.60;;;;;;4966415;28;20468;-80
2022/07/06 22:50:36;;;;;;;;;;;25.90;78.70;;;;;;4957101;28;19971;-80
2022/07/06 22:53:02;;;;;;;;;;;25.90;78.90;;;;;;4950495;28;20488;-80
2022/07/06 22:55:28;;;;;;;;;;;25.90;78.90;;;;;;4967780;28;19959;-82
2022/07/06 22:57:54;;;;;;;;;;;25.90;79.00;;;;;;4942227;28;19966;-83
2022/07/06 23:00:19;;;;;;;;;;;25.90;79.00;;;;;;4952217;28;20102;-83
2022/07/06 23:02:45;;;;;;;;;;;25.90;79.00;;;;;;4998960;28;20021;-83
2022/07/06 23:05:11;;;;;;;;;;;25.90;78.90;;;;;;4967231;28;19964;-82
2022/07/06 23:07:37;;;;;;;;;;;25.90;78.80;;;;;;4969079;28;20429;-82
2022/07/06 23:10:04;;;;;;;;;;;25.90;78.70;;;;;;4967848;28;19997;-82
2022/07/06 23:12:30;;;;;;;;;;;25.90;78.70;;;;;;4997612;28;19965;-81
2022/07/06 23:14:56;;;;;;;;;;;25.90;78.80;;;;;;4950166;28;20363;-81
2022/07/06 23:17:22;;;;;;;;;;;25.90;78.70;;;;;;4961651;28;19991;-81
2022/07/06 23:19:48;;;;;;;;;;;25.90;78.50;;;;;;4966538;28;19951;-80
2022/07/06 23:22:14;;;;;;;;;;;25.90;78.10;;;;;;4982413;28;19949;-80
2022/07/06 23:24:40;;;;;;;;;;;25.90;78.00;;;;;;4966204;28;20438;-80
2022/07/06 23:27:05;;;;;;;;;;;25.90;77.90;;;;;;4980811;28;20008;-78
2022/07/06 23:29:31;;;;;;;;;;;25.90;77.70;;;;;;4966459;28;20020;-79
2022/07/06 23:31:57;;;;;;;;;;;25.90;77.70;;;;;;4965952;28;19990;-79
2022/07/06 23:34:23;;;;;;;;;;;25.90;77.70;;;;;;4998544;28;19953;-79
2022/07/06 23:36:49;;;;;;;;;;;25.90;77.60;;;;;;4964925;28;19974;-79
2022/07/06 23:39:15;;;;;;;;;;;25.90;77.60;;;;;;4982041;28;20006;-80
2022/07/06 23:41:40;;;;;;;;;;;25.90;77.70;;;;;;4949570;28;19992;-79
2022/07/06 23:44:06;;;;;;;;;;;25.90;77.40;;;;;;4966439;28;20009;-79
2022/07/06 23:46:32;;;;;;;;;;;25.90;77.50;;;;;;4968106;28;20009;-80
2022/07/06 23:48:58;;;;;;;;;;;25.80;77.70;;;;;;4966934;28;19964;-82
2022/07/06 23:51:26;;;;;;;;;;;25.80;77.90;;;;;;4968370;28;19963;-82
2022/07/06 23:53:52;;;;;;;;;;;25.70;77.90;;;;;;4997899;28;19969;-80
2022/07/06 23:56:18;;;;;;;;;;;25.70;78.20;;;;;;4982936;28;20651;-82
2022/07/06 23:58:43;;;;;;;;;;;25.70;78.20;;;;;;4966354;28;19947;-79
